createdAt,value
2016-11-13T00:00:14.657Z,0
2016-11-13T00:01:14.676Z,0
2016-11-13T00:02:29.592Z,0
2016-11-13T00:03:29.611Z,0
2016-11-13T00:04:14.712Z,0
2016-11-13T00:05:14.718Z,0
2016-11-13T00:06:29.644Z,0
2016-11-13T00:07:14.750Z,0
2016-11-13T00:10:29.698Z,0
2016-11-13T00:11:14.796Z,0
2016-11-13T00:12:14.806Z,0
2016-11-13T00:13:44.647Z,0
2016-11-13T00:14:14.831Z,0
2016-11-13T00:16:14.850Z,0
2016-11-13T00:18:14.878Z,0
2016-11-13T00:19:29.808Z,0
2016-11-13T00:20:14.901Z,0
2016-11-13T00:21:14.915Z,0
2016-11-13T00:22:14.965Z,0
2016-11-13T00:23:14.937Z,0
2016-11-13T00:25:14.969Z,0
2016-11-13T00:26:29.895Z,0
2016-11-13T00:27:14.994Z,0
2016-11-13T00:28:29.915Z,0
2016-11-13T00:29:15.064Z,0
2016-11-13T00:30:15.028Z,0
2016-11-13T00:31:15.040Z,0
2016-11-13T00:32:15.056Z,0
2016-11-13T00:33:15.065Z,0
2016-11-13T00:34:15.103Z,0
2016-11-13T00:35:15.091Z,0
2016-11-13T00:36:15.111Z,0
2016-11-13T00:38:15.121Z,0
2016-11-13T00:39:15.135Z,0
2016-11-13T00:40:15.154Z,0
2016-11-13T00:41:15.157Z,0
2016-11-13T00:42:15.173Z,0
2016-11-13T00:43:15.192Z,0
2016-11-13T00:44:15.206Z,0
2016-11-13T00:45:15.209Z,0
2016-11-13T00:46:15.222Z,0
2016-11-13T00:47:15.231Z,0
2016-11-13T00:48:15.243Z,0
2016-11-13T00:49:15.259Z,0
2016-11-13T00:50:15.271Z,0
2016-11-13T00:51:15.287Z,0
2016-11-13T00:52:15.300Z,0
2016-11-13T00:53:15.310Z,0
2016-11-13T00:54:15.321Z,0
2016-11-13T00:55:15.334Z,0
2016-11-13T00:56:15.343Z,0
2016-11-13T00:57:15.354Z,0
2016-11-13T00:58:15.364Z,0
2016-11-13T01:01:15.441Z,0
2016-11-13T01:02:15.429Z,0
2016-11-13T01:03:15.434Z,0
2016-11-13T01:04:30.353Z,0
2016-11-13T01:05:30.368Z,0
2016-11-13T01:07:15.474Z,0
2016-11-13T01:08:15.485Z,0
2016-11-13T01:09:15.497Z,0
2016-11-13T01:10:15.519Z,0
2016-11-13T01:11:30.440Z,0
2016-11-13T01:12:15.533Z,0
2016-11-13T01:13:15.548Z,0
2016-11-13T01:14:30.516Z,0
2016-11-13T01:15:30.484Z,0
2016-11-13T01:16:30.501Z,0
2016-11-13T01:17:30.505Z,0
2016-11-13T01:18:15.611Z,0
2016-11-13T01:19:15.625Z,0
2016-11-13T01:20:15.629Z,0
2016-11-13T01:21:15.655Z,0
2016-11-13T01:22:15.655Z,0
2016-11-13T01:23:15.671Z,0
2016-11-13T01:24:15.682Z,0
2016-11-13T01:25:15.695Z,0
2016-11-13T01:26:15.699Z,0
2016-11-13T01:28:15.726Z,0
2016-11-13T01:29:15.740Z,0
2016-11-13T01:30:30.669Z,0
2016-11-13T01:31:15.763Z,0
2016-11-13T01:32:45.600Z,0
2016-11-13T01:33:15.788Z,0
2016-11-13T01:34:15.801Z,0
2016-11-13T01:35:15.845Z,0
2016-11-13T01:36:31.036Z,0
2016-11-13T01:37:30.748Z,0
2016-11-13T01:38:15.853Z,0
2016-11-13T01:39:15.861Z,0
2016-11-13T01:40:15.868Z,0
2016-11-13T01:41:15.889Z,0
2016-11-13T01:42:15.903Z,0
2016-11-13T01:43:15.906Z,0
2016-11-13T01:44:15.918Z,0
2016-11-13T01:45:15.926Z,0
2016-11-13T01:47:15.965Z,0
2016-11-13T01:48:30.885Z,0
2016-11-13T01:49:15.978Z,0
2016-11-13T01:50:15.994Z,0
2016-11-13T01:51:15.999Z,0
2016-11-13T01:52:16.016Z,0
2016-11-13T01:53:16.023Z,0
2016-11-13T01:54:30.952Z,0
2016-11-13T01:55:16.046Z,0
2016-11-13T01:56:16.066Z,0
2016-11-13T01:57:16.072Z,0
2016-11-13T01:58:16.090Z,0
2016-11-13T01:59:16.127Z,0
2016-11-13T02:00:16.110Z,0
2016-11-13T02:01:16.126Z,0
2016-11-13T02:03:31.100Z,0
2016-11-13T02:04:31.071Z,0
2016-11-13T02:05:16.170Z,0
2016-11-13T02:06:16.186Z,0
2016-11-13T02:07:16.195Z,0
2016-11-13T02:08:31.119Z,0
2016-11-13T02:09:16.270Z,0
2016-11-13T02:10:16.235Z,0
2016-11-13T02:11:16.244Z,0
2016-11-13T02:12:16.253Z,0
2016-11-13T02:13:16.264Z,0
2016-11-13T02:14:16.320Z,0
2016-11-13T02:15:16.287Z,0
2016-11-13T02:16:16.298Z,0
2016-11-13T02:17:31.229Z,0
2016-11-13T02:18:31.240Z,0
2016-11-13T02:20:31.261Z,0
2016-11-13T02:21:16.367Z,0
2016-11-13T02:22:16.377Z,0
2016-11-13T02:23:16.392Z,0
2016-11-13T02:24:16.403Z,0
2016-11-13T02:25:31.322Z,0
2016-11-13T02:26:16.421Z,0
2016-11-13T02:27:31.344Z,0
2016-11-13T02:28:16.444Z,0
2016-11-13T02:29:16.453Z,0
2016-11-13T02:30:16.469Z,0
2016-11-13T02:31:16.483Z,0
2016-11-13T02:32:16.497Z,0
2016-11-13T02:34:16.512Z,0
2016-11-13T02:35:31.445Z,0
2016-11-13T02:36:16.567Z,0
2016-11-13T02:37:16.559Z,0
2016-11-13T02:38:31.473Z,0
2016-11-13T02:39:16.572Z,0
2016-11-13T02:40:16.588Z,0
2016-11-13T02:41:16.600Z,0
2016-11-13T02:42:16.610Z,0
2016-11-13T02:43:16.627Z,0
2016-11-13T02:44:31.543Z,0
2016-11-13T02:45:31.552Z,0
2016-11-13T02:46:16.689Z,0
2016-11-13T02:47:16.668Z,0
2016-11-13T02:48:16.682Z,0
2016-11-13T02:49:16.700Z,0
2016-11-13T02:52:16.729Z,0
2016-11-13T02:53:16.739Z,0
2016-11-13T02:54:16.758Z,0
2016-11-13T02:55:16.757Z,0
2016-11-13T02:56:16.774Z,0
2016-11-13T02:57:16.789Z,0
2016-11-13T02:58:16.802Z,0
2016-11-13T02:59:16.814Z,0
2016-11-13T03:00:16.834Z,0
2016-11-13T03:01:16.833Z,0
2016-11-13T03:02:16.846Z,0
2016-11-13T03:03:16.865Z,0
2016-11-13T03:04:16.866Z,0
2016-11-13T03:05:16.884Z,0
2016-11-13T03:06:16.895Z,0
2016-11-13T03:07:46.730Z,0
2016-11-13T03:08:16.924Z,0
2016-11-13T03:09:16.926Z,0
2016-11-13T03:10:16.942Z,0
2016-11-13T03:11:16.954Z,0
2016-11-13T03:12:16.976Z,0
2016-11-13T03:13:17.007Z,0
2016-11-13T03:14:31.934Z,0
2016-11-13T03:15:17.034Z,0
2016-11-13T03:16:17.008Z,0
2016-11-13T03:17:17.027Z,0
2016-11-13T03:18:17.032Z,0
2016-11-13T03:19:17.071Z,0
2016-11-13T03:20:17.062Z,0
2016-11-13T03:21:17.065Z,0
2016-11-13T03:22:17.087Z,0
2016-11-13T03:23:32.012Z,0
2016-11-13T03:24:17.107Z,0
2016-11-13T03:25:32.028Z,0
2016-11-13T03:26:17.122Z,0
2016-11-13T03:27:17.172Z,0
2016-11-13T03:28:17.155Z,0
2016-11-13T03:29:17.162Z,0
2016-11-13T03:30:17.177Z,0
2016-11-13T03:31:32.114Z,0
2016-11-13T03:32:17.216Z,0
2016-11-13T03:33:17.212Z,0
2016-11-13T03:34:17.224Z,0
2016-11-13T03:35:17.239Z,0
2016-11-13T03:36:17.247Z,0
2016-11-13T03:38:32.179Z,0
2016-11-13T03:40:17.299Z,0
2016-11-13T03:41:17.294Z,0
2016-11-13T03:42:17.323Z,0
2016-11-13T03:43:17.330Z,0
2016-11-13T03:44:17.337Z,0
2016-11-13T03:45:17.345Z,0
2016-11-13T03:46:32.270Z,0
2016-11-13T03:47:17.375Z,0
2016-11-13T03:48:17.380Z,0
2016-11-13T03:49:17.391Z,0
2016-11-13T03:50:32.319Z,0
2016-11-13T03:51:32.333Z,0
2016-11-13T03:52:32.344Z,0
2016-11-13T03:53:17.442Z,0
2016-11-13T03:54:17.481Z,0
2016-11-13T03:55:17.465Z,0
2016-11-13T03:56:17.478Z,0
2016-11-13T03:57:17.492Z,0
2016-11-13T03:58:17.507Z,0
2016-11-13T03:59:17.507Z,0
2016-11-13T04:00:17.527Z,0
2016-11-13T04:01:17.535Z,0
2016-11-13T04:02:17.541Z,0
2016-11-13T04:03:17.558Z,0
2016-11-13T04:04:32.484Z,0
2016-11-13T04:05:17.582Z,0
2016-11-13T04:07:17.631Z,0
2016-11-13T04:08:32.530Z,0
2016-11-13T04:09:17.662Z,0
2016-11-13T04:10:32.558Z,0
2016-11-13T04:11:17.648Z,0
2016-11-13T04:12:17.672Z,0
2016-11-13T04:13:17.682Z,0
2016-11-13T04:14:17.687Z,0
2016-11-13T04:15:17.695Z,0
2016-11-13T04:16:17.714Z,0
2016-11-13T04:17:17.712Z,0
2016-11-13T04:18:32.643Z,0
2016-11-13T04:19:17.742Z,0
2016-11-13T04:20:32.661Z,0
2016-11-13T04:21:17.768Z,0
2016-11-13T04:22:17.774Z,0
2016-11-13T04:23:17.813Z,0
2016-11-13T04:24:32.714Z,0
2016-11-13T04:25:17.841Z,0
2016-11-13T04:26:47.649Z,0
2016-11-13T04:27:17.839Z,0
2016-11-13T04:28:32.756Z,0
2016-11-13T04:29:17.856Z,0
2016-11-13T04:30:17.869Z,0
2016-11-13T04:31:17.879Z,0
2016-11-13T04:32:17.900Z,0
2016-11-13T04:33:17.904Z,0
2016-11-13T04:34:17.941Z,0
2016-11-13T04:35:17.926Z,0
2016-11-13T04:36:17.938Z,0
2016-11-13T04:37:17.952Z,0
2016-11-13T04:38:32.878Z,0
2016-11-13T04:39:17.966Z,0
2016-11-13T04:40:17.982Z,0
2016-11-13T04:42:32.916Z,0
2016-11-13T04:45:18.042Z,0
2016-11-13T04:46:18.059Z,0
2016-11-13T04:47:32.977Z,0
2016-11-13T04:48:18.074Z,0
2016-11-13T04:49:18.085Z,0
2016-11-13T04:50:18.411Z,0
2016-11-13T04:51:18.112Z,0
2016-11-13T04:52:18.153Z,0
2016-11-13T04:53:18.135Z,0
2016-11-13T04:54:18.140Z,0
2016-11-13T04:55:33.068Z,0
2016-11-13T04:56:18.167Z,0
2016-11-13T04:57:33.088Z,0
2016-11-13T04:58:33.104Z,0
2016-11-13T04:59:18.203Z,0
2016-11-13T05:00:18.215Z,0
2016-11-13T05:01:18.225Z,0
2016-11-13T05:02:18.240Z,0
2016-11-13T05:03:18.248Z,0
2016-11-13T05:04:18.258Z,0
2016-11-13T05:05:18.272Z,0
2016-11-13T05:06:18.281Z,0
2016-11-13T05:08:18.348Z,0
2016-11-13T05:09:33.234Z,0
2016-11-13T05:10:18.322Z,0
2016-11-13T05:11:18.375Z,0
2016-11-13T05:12:18.388Z,0
2016-11-13T05:13:33.273Z,0
2016-11-13T05:14:18.409Z,0
2016-11-13T05:15:33.296Z,0
2016-11-13T05:16:18.395Z,0
2016-11-13T05:17:18.412Z,0
2016-11-13T05:18:18.422Z,0
2016-11-13T05:19:18.426Z,0
2016-11-13T05:20:18.441Z,0
2016-11-13T05:21:18.456Z,0
2016-11-13T05:22:18.464Z,0
2016-11-13T05:23:18.479Z,0
2016-11-13T05:24:18.491Z,0
2016-11-13T05:25:18.527Z,0
2016-11-13T05:26:18.514Z,0
2016-11-13T05:27:18.519Z,0
2016-11-13T05:28:18.536Z,0
2016-11-13T05:29:18.542Z,0
2016-11-13T05:30:33.498Z,0
2016-11-13T05:31:18.572Z,0
2016-11-13T05:32:18.586Z,0
2016-11-13T05:33:19.198Z,0
2016-11-13T05:34:18.605Z,0
2016-11-13T05:35:18.614Z,0
2016-11-13T05:36:33.536Z,0
2016-11-13T05:37:18.641Z,0
2016-11-13T05:38:18.649Z,0
2016-11-13T05:39:18.663Z,0
2016-11-13T05:40:18.675Z,0
2016-11-13T05:41:18.685Z,0
2016-11-13T05:42:18.692Z,0
2016-11-13T05:43:33.621Z,0
2016-11-13T05:44:18.713Z,0
2016-11-13T05:45:48.554Z,0
2016-11-13T05:47:18.751Z,0
2016-11-13T05:49:18.774Z,0
2016-11-13T05:50:18.789Z,0
2016-11-13T05:51:18.797Z,0
2016-11-13T05:52:19.115Z,0
2016-11-13T05:53:33.733Z,0
2016-11-13T05:54:18.834Z,0
2016-11-13T05:55:18.845Z,0
2016-11-13T05:56:33.772Z,0
2016-11-13T05:57:33.810Z,0
2016-11-13T05:58:18.913Z,0
2016-11-13T05:59:33.803Z,0
2016-11-13T06:00:18.898Z,0
2016-11-13T06:01:33.826Z,0
2016-11-13T06:02:18.924Z,0
2016-11-13T06:03:33.843Z,0
2016-11-13T06:04:18.950Z,0
2016-11-13T06:05:18.960Z,0
2016-11-13T06:06:18.966Z,0
2016-11-13T06:07:33.896Z,0
2016-11-13T06:08:18.992Z,0
2016-11-13T06:09:33.916Z,0
2016-11-13T06:10:19.014Z,0
2016-11-13T06:11:19.057Z,0
2016-11-13T06:12:19.041Z,0
2016-11-13T06:13:19.043Z,0
2016-11-13T06:14:19.052Z,0
2016-11-13T06:15:19.076Z,0
2016-11-13T06:16:19.083Z,0
2016-11-13T06:17:48.920Z,0
2016-11-13T06:18:19.096Z,5
2016-11-13T06:19:19.116Z,5
2016-11-13T06:20:34.356Z,5
2016-11-13T06:21:19.138Z,5
2016-11-13T06:22:19.155Z,5
2016-11-13T06:23:19.195Z,5
2016-11-13T06:24:19.483Z,5
2016-11-13T06:25:19.184Z,5
2016-11-13T06:26:19.194Z,5
2016-11-13T06:27:19.209Z,10
2016-11-13T06:28:34.135Z,10
2016-11-13T06:29:19.227Z,10
2016-11-13T06:30:19.238Z,10
2016-11-13T06:32:19.256Z,10
2016-11-13T06:33:49.101Z,15
2016-11-13T06:35:34.207Z,15
2016-11-13T06:36:19.311Z,15
2016-11-13T06:37:19.348Z,15
2016-11-13T06:38:34.245Z,15
2016-11-13T06:39:19.338Z,20
2016-11-13T06:40:19.351Z,20
2016-11-13T06:41:19.363Z,20
2016-11-13T06:42:19.375Z,20
2016-11-13T06:43:34.298Z,20
2016-11-13T06:44:19.397Z,25
2016-11-13T06:45:19.410Z,25
2016-11-13T06:46:19.423Z,25
2016-11-13T06:47:19.430Z,25
2016-11-13T06:48:49.273Z,30
2016-11-13T06:49:19.455Z,30
2016-11-13T06:50:19.465Z,30
2016-11-13T06:51:19.484Z,30
2016-11-13T06:52:19.488Z,35
2016-11-13T06:53:19.504Z,35
2016-11-13T06:54:19.516Z,35
2016-11-13T06:55:19.532Z,40
2016-11-13T06:56:19.542Z,40
2016-11-13T06:57:19.546Z,40
2016-11-13T06:58:19.553Z,40
2016-11-13T06:59:19.568Z,40
2016-11-13T07:00:19.632Z,40
2016-11-13T07:01:19.595Z,40
2016-11-13T07:02:19.602Z,45
2016-11-13T07:03:19.618Z,45
2016-11-13T07:04:19.679Z,45
2016-11-13T07:05:19.644Z,45
2016-11-13T07:06:19.662Z,50
2016-11-13T07:07:19.671Z,50
2016-11-13T07:08:34.591Z,50
2016-11-13T07:09:19.693Z,50
2016-11-13T07:10:19.706Z,50
2016-11-13T07:11:19.725Z,55
2016-11-13T07:12:19.722Z,55
2016-11-13T07:13:19.734Z,55
2016-11-13T07:14:19.747Z,55
2016-11-13T07:15:19.758Z,55
2016-11-13T07:18:19.795Z,60
2016-11-13T07:19:20.142Z,60
2016-11-13T07:20:34.735Z,60
2016-11-13T07:21:19.833Z,60
2016-11-13T07:22:19.837Z,65
2016-11-13T07:24:19.862Z,75
2016-11-13T07:25:19.880Z,85
2016-11-13T07:26:19.886Z,85
2016-11-13T07:27:19.908Z,85
2016-11-13T07:28:19.911Z,85
2016-11-13T07:29:19.919Z,90
2016-11-13T07:30:19.934Z,95
2016-11-13T07:31:19.937Z,100
2016-11-13T07:32:34.872Z,95
2016-11-13T07:33:34.884Z,80
2016-11-13T07:34:19.983Z,75
2016-11-13T07:35:19.988Z,75
2016-11-13T07:36:49.833Z,85
2016-11-13T07:37:34.949Z,90
2016-11-13T07:38:20.027Z,95
2016-11-13T07:39:34.950Z,110
2016-11-13T07:40:34.961Z,115
2016-11-13T07:41:34.977Z,115
2016-11-13T07:42:20.684Z,115
2016-11-13T07:43:20.088Z,115
2016-11-13T07:44:20.101Z,115
2016-11-13T07:45:35.024Z,90
2016-11-13T07:46:20.125Z,85
2016-11-13T07:47:20.140Z,85
2016-11-13T07:48:20.150Z,90
2016-11-13T07:49:35.110Z,90
2016-11-13T07:50:20.175Z,85
2016-11-13T07:51:20.196Z,85
2016-11-13T07:52:35.117Z,85
2016-11-13T07:53:20.214Z,85
2016-11-13T07:54:20.233Z,85
2016-11-13T07:55:20.241Z,90
2016-11-13T07:56:20.250Z,110
2016-11-13T07:57:20.262Z,130
2016-11-13T07:58:20.276Z,130
2016-11-13T07:59:20.327Z,125
2016-11-13T08:00:20.303Z,115
2016-11-13T08:01:21.008Z,105
2016-11-13T08:02:20.368Z,115
2016-11-13T08:03:20.340Z,120
2016-11-13T08:04:20.364Z,125
2016-11-13T08:05:20.394Z,130
2016-11-13T08:06:20.384Z,130
2016-11-13T08:07:20.388Z,130
2016-11-13T08:08:35.313Z,130
2016-11-13T08:09:20.421Z,130
2016-11-13T08:10:20.434Z,130
2016-11-13T08:11:20.447Z,130
2016-11-13T08:12:20.461Z,130
2016-11-13T08:13:20.466Z,130
2016-11-13T08:14:20.478Z,130
2016-11-13T08:15:20.493Z,130
2016-11-13T08:16:20.511Z,130
2016-11-13T08:17:20.529Z,130
2016-11-13T08:18:35.445Z,130
2016-11-13T08:19:20.540Z,130
2016-11-13T08:20:20.559Z,130
2016-11-13T08:21:35.492Z,130
2016-11-13T08:22:20.589Z,130
2016-11-13T08:23:35.511Z,125
2016-11-13T08:25:20.631Z,130
2016-11-13T08:26:20.640Z,130
2016-11-13T08:27:20.659Z,130
2016-11-13T08:28:20.679Z,130
2016-11-13T08:29:20.682Z,130
2016-11-13T08:30:20.699Z,130
2016-11-13T08:31:20.713Z,130
2016-11-13T08:32:20.726Z,130
2016-11-13T08:33:21.236Z,130
2016-11-13T08:34:35.670Z,130
2016-11-13T08:35:20.764Z,130
2016-11-13T08:36:35.691Z,130
2016-11-13T08:37:20.792Z,130
2016-11-13T08:38:35.720Z,130
2016-11-13T08:39:20.817Z,125
2016-11-13T08:40:20.836Z,125
2016-11-13T08:41:35.760Z,125
2016-11-13T08:42:20.868Z,125
2016-11-13T08:43:20.880Z,125
2016-11-13T08:44:35.806Z,125
2016-11-13T08:45:20.899Z,125
2016-11-13T08:46:20.919Z,125
2016-11-13T08:47:20.928Z,125
2016-11-13T08:48:35.865Z,120
2016-11-13T08:49:20.963Z,105
2016-11-13T08:50:20.977Z,90
2016-11-13T08:51:20.988Z,105
2016-11-13T08:52:21.003Z,125
2016-11-13T08:53:21.067Z,125
2016-11-13T08:54:21.030Z,125
2016-11-13T08:55:35.958Z,120
2016-11-13T08:56:21.067Z,120
2016-11-13T08:57:21.072Z,120
2016-11-13T08:58:21.095Z,120
2016-11-13T09:00:21.119Z,120
2016-11-13T09:01:21.126Z,120
2016-11-13T09:02:21.153Z,120
2016-11-13T09:03:21.160Z,120
2016-11-13T09:04:21.175Z,120
2016-11-13T09:05:21.191Z,120
2016-11-13T09:06:21.207Z,115
2016-11-13T09:07:21.224Z,115
2016-11-13T09:08:36.149Z,115
2016-11-13T09:09:21.246Z,115
2016-11-13T09:10:21.261Z,115
2016-11-13T09:11:36.192Z,115
2016-11-13T09:12:21.292Z,115
2016-11-13T09:13:21.306Z,115
2016-11-13T09:14:21.621Z,115
2016-11-13T09:15:21.651Z,115
2016-11-13T09:16:36.263Z,115
2016-11-13T09:17:21.364Z,115
2016-11-13T09:18:21.375Z,110
2016-11-13T09:19:21.392Z,110
2016-11-13T09:20:22.101Z,110
2016-11-13T09:21:21.433Z,110
2016-11-13T09:22:21.430Z,110
2016-11-13T09:23:21.455Z,110
2016-11-13T09:24:21.471Z,110
2016-11-13T09:25:21.485Z,110
2016-11-13T09:27:36.434Z,110
2016-11-13T09:28:21.610Z,110
2016-11-13T09:29:36.452Z,110
2016-11-13T09:30:21.561Z,110
2016-11-13T09:31:21.568Z,110
2016-11-13T09:32:21.588Z,110
2016-11-13T09:33:21.606Z,110
2016-11-13T09:34:21.623Z,110
2016-11-13T09:35:21.627Z,110
2016-11-13T09:36:21.639Z,115
2016-11-13T09:38:21.670Z,110
2016-11-13T09:39:21.686Z,115
2016-11-13T09:40:21.707Z,110
2016-11-13T09:42:36.651Z,110
2016-11-13T09:43:36.664Z,110
2016-11-13T09:44:21.768Z,110
2016-11-13T09:45:21.782Z,100
2016-11-13T09:46:22.122Z,105
2016-11-13T09:47:21.812Z,110
2016-11-13T09:48:21.830Z,105
2016-11-13T09:49:21.841Z,105
2016-11-13T09:50:21.869Z,105
2016-11-13T09:51:21.885Z,100
2016-11-13T09:52:21.918Z,105
2016-11-13T09:53:21.899Z,110
2016-11-13T09:54:21.923Z,110
2016-11-13T09:55:36.851Z,110
2016-11-13T09:56:21.959Z,105
2016-11-13T09:57:36.882Z,105
2016-11-13T09:59:21.999Z,105
2016-11-13T10:00:36.924Z,105
2016-11-13T10:01:22.075Z,100
2016-11-13T10:02:22.196Z,100
2016-11-13T10:03:37.020Z,105
2016-11-13T10:04:22.077Z,100
2016-11-13T10:05:22.109Z,100
2016-11-13T10:06:22.104Z,100
2016-11-13T10:07:22.126Z,100
2016-11-13T10:08:37.055Z,95
2016-11-13T10:09:22.156Z,95
2016-11-13T10:10:22.169Z,95
2016-11-13T10:11:22.184Z,95
2016-11-13T10:12:22.197Z,95
2016-11-13T10:13:37.127Z,95
2016-11-13T10:14:22.273Z,90
2016-11-13T10:15:22.244Z,90
2016-11-13T10:16:22.263Z,90
2016-11-13T10:17:37.188Z,90
2016-11-13T10:18:37.210Z,90
2016-11-13T10:20:22.327Z,90
2016-11-13T10:21:22.339Z,90
2016-11-13T10:22:22.348Z,90
2016-11-13T10:23:37.285Z,95
2016-11-13T10:24:22.385Z,95
2016-11-13T10:25:22.400Z,95
2016-11-13T10:26:22.425Z,95
2016-11-13T10:27:22.429Z,95
2016-11-13T10:28:22.450Z,95
2016-11-13T10:29:37.381Z,90
2016-11-13T10:30:52.306Z,95
2016-11-13T10:31:22.500Z,95
2016-11-13T10:32:22.515Z,95
2016-11-13T10:33:22.527Z,95
2016-11-13T10:34:22.540Z,95
2016-11-13T10:35:22.555Z,95
2016-11-13T10:36:22.575Z,95
2016-11-13T10:37:37.502Z,95
2016-11-13T10:38:22.608Z,95
2016-11-13T10:39:22.617Z,95
2016-11-13T10:40:22.634Z,95
2016-11-13T10:41:37.566Z,95
2016-11-13T10:42:22.693Z,95
2016-11-13T10:43:22.686Z,95
2016-11-13T10:44:23.018Z,95
2016-11-13T10:45:22.721Z,95
2016-11-13T10:46:52.558Z,95
2016-11-13T10:47:22.752Z,95
2016-11-13T10:48:22.764Z,95
2016-11-13T10:49:22.773Z,95
2016-11-13T10:50:22.788Z,95
2016-11-13T10:51:37.726Z,95
2016-11-13T10:53:37.759Z,95
2016-11-13T10:54:22.859Z,95
2016-11-13T10:55:22.870Z,95
2016-11-13T10:56:37.807Z,95
2016-11-13T10:57:22.916Z,95
2016-11-13T10:58:22.923Z,95
2016-11-13T10:59:22.936Z,95
2016-11-13T11:00:22.950Z,95
2016-11-13T11:01:22.972Z,95
2016-11-13T11:02:37.903Z,95
2016-11-13T11:03:22.998Z,95
2016-11-13T11:04:23.019Z,95
2016-11-13T11:05:23.037Z,95
2016-11-13T11:06:23.045Z,95
2016-11-13T11:07:23.061Z,95
2016-11-13T11:08:23.084Z,95
2016-11-13T11:09:23.090Z,95
2016-11-13T11:10:23.113Z,95
2016-11-13T11:11:23.128Z,100
2016-11-13T11:12:23.144Z,100
2016-11-13T11:13:23.156Z,100
2016-11-13T11:14:38.090Z,100
2016-11-13T11:15:23.186Z,100
2016-11-13T11:16:23.207Z,95
2016-11-13T11:17:23.226Z,100
2016-11-13T11:20:38.183Z,100
2016-11-13T11:21:23.285Z,100
2016-11-13T11:22:23.308Z,100
2016-11-13T11:23:38.241Z,100
2016-11-13T11:24:23.335Z,100
2016-11-13T11:25:23.351Z,100
2016-11-13T11:26:23.371Z,100
2016-11-13T11:27:23.384Z,100
2016-11-13T11:29:23.420Z,100
2016-11-13T11:30:23.456Z,100
2016-11-13T11:31:23.550Z,100
2016-11-13T11:32:23.473Z,100
2016-11-13T11:33:38.401Z,100
2016-11-13T11:34:38.412Z,100
2016-11-13T11:35:23.520Z,100
2016-11-13T11:36:23.532Z,100
2016-11-13T11:37:23.547Z,100
2016-11-13T11:38:23.563Z,100
2016-11-13T11:39:38.494Z,100
2016-11-13T11:40:23.599Z,100
2016-11-13T11:41:23.662Z,100
2016-11-13T11:42:23.634Z,100
2016-11-13T11:43:23.640Z,100
2016-11-13T11:44:23.665Z,100
2016-11-13T11:45:23.680Z,100
2016-11-13T11:46:23.695Z,100
2016-11-13T11:47:38.629Z,100
2016-11-13T11:48:23.739Z,100
2016-11-13T11:49:23.750Z,100
2016-11-13T11:50:23.761Z,100
2016-11-13T11:51:38.695Z,100
2016-11-13T11:52:38.714Z,100
2016-11-13T11:53:38.721Z,100
2016-11-13T11:54:24.135Z,100
2016-11-13T11:55:38.752Z,100
2016-11-13T11:56:23.857Z,100
2016-11-13T11:57:23.875Z,100
2016-11-13T11:58:23.894Z,100
2016-11-13T11:59:23.911Z,100
2016-11-13T12:00:38.844Z,100
2016-11-13T12:01:23.941Z,100
2016-11-13T12:02:23.958Z,100
2016-11-13T12:03:38.894Z,100
2016-11-13T12:04:23.987Z,100
2016-11-13T12:05:38.928Z,100
2016-11-13T12:06:24.036Z,100
2016-11-13T12:07:38.958Z,100
2016-11-13T12:08:24.059Z,100
2016-11-13T12:09:24.115Z,100
2016-11-13T12:10:24.095Z,100
2016-11-13T12:11:24.112Z,100
2016-11-13T12:12:24.129Z,100
2016-11-13T12:13:24.142Z,100
2016-11-13T12:14:24.162Z,100
2016-11-13T12:15:24.179Z,100
2016-11-13T12:16:24.193Z,100
2016-11-13T12:17:24.209Z,100
2016-11-13T12:18:39.145Z,95
2016-11-13T12:19:24.271Z,95
2016-11-13T12:20:39.175Z,95
2016-11-13T12:21:39.187Z,95
2016-11-13T12:22:24.299Z,90
2016-11-13T12:23:24.311Z,85
2016-11-13T12:24:24.334Z,85
2016-11-13T12:25:24.349Z,90
2016-11-13T12:26:24.360Z,85
2016-11-13T12:27:24.386Z,90
2016-11-13T12:28:24.395Z,90
2016-11-13T12:29:39.324Z,90
2016-11-13T12:30:24.433Z,90
2016-11-13T12:31:24.448Z,85
2016-11-13T12:32:24.780Z,85
2016-11-13T12:33:24.483Z,90
2016-11-13T12:34:24.497Z,90
2016-11-13T12:35:39.440Z,90
2016-11-13T12:36:24.524Z,95
2016-11-13T12:37:39.480Z,95
2016-11-13T12:38:24.564Z,95
2016-11-13T12:39:24.620Z,95
2016-11-13T12:40:24.601Z,95
2016-11-13T12:41:24.614Z,95
2016-11-13T12:42:24.632Z,95
2016-11-13T12:43:24.644Z,95
2016-11-13T12:44:24.663Z,95
2016-11-13T12:45:24.678Z,95
2016-11-13T12:46:39.614Z,95
2016-11-13T12:47:24.712Z,95
2016-11-13T12:48:24.731Z,95
2016-11-13T12:49:24.744Z,90
2016-11-13T12:50:24.772Z,75
2016-11-13T12:51:39.750Z,90
2016-11-13T12:52:24.797Z,95
2016-11-13T12:53:39.729Z,90
2016-11-13T12:54:24.834Z,90
2016-11-13T12:55:24.850Z,90
2016-11-13T12:56:39.834Z,90
2016-11-13T12:57:24.890Z,90
2016-11-13T12:58:24.899Z,90
2016-11-13T12:59:24.915Z,90
2016-11-13T13:00:39.849Z,90
2016-11-13T13:01:40.066Z,90
2016-11-13T13:02:24.961Z,90
2016-11-13T13:03:24.983Z,90
2016-11-13T13:04:25.001Z,90
2016-11-13T13:05:25.020Z,90
2016-11-13T13:06:25.043Z,90
2016-11-13T13:07:25.052Z,90
2016-11-13T13:09:25.082Z,90
2016-11-13T13:11:25.125Z,90
2016-11-13T13:12:25.143Z,90
2016-11-13T13:13:25.190Z,90
2016-11-13T13:14:25.170Z,90
2016-11-13T13:15:25.196Z,90
2016-11-13T13:16:25.215Z,85
2016-11-13T13:17:40.139Z,85
2016-11-13T13:18:25.250Z,85
2016-11-13T13:19:25.259Z,85
2016-11-13T13:21:25.296Z,85
2016-11-13T13:22:25.308Z,85
2016-11-13T13:23:25.334Z,85
2016-11-13T13:24:25.342Z,85
2016-11-13T13:25:25.373Z,85
2016-11-13T13:26:25.390Z,85
2016-11-13T13:27:25.395Z,80
2016-11-13T13:28:25.415Z,80
2016-11-13T13:29:25.429Z,80
2016-11-13T13:30:40.410Z,80
2016-11-13T13:31:25.462Z,80
2016-11-13T13:32:25.489Z,80
2016-11-13T13:33:40.724Z,80
2016-11-13T13:34:25.517Z,80
2016-11-13T13:35:25.541Z,80
2016-11-13T13:36:40.469Z,80
2016-11-13T13:37:25.874Z,80
2016-11-13T13:38:25.592Z,80
2016-11-13T13:39:25.598Z,80
2016-11-13T13:40:40.533Z,80
2016-11-13T13:41:25.636Z,80
2016-11-13T13:42:25.662Z,75
2016-11-13T13:43:25.672Z,80
2016-11-13T13:44:25.688Z,80
2016-11-13T13:45:25.711Z,80
2016-11-13T13:46:25.723Z,75
2016-11-13T13:47:25.737Z,75
2016-11-13T13:48:25.759Z,75
2016-11-13T13:49:25.773Z,75
2016-11-13T13:50:40.706Z,75
2016-11-13T13:51:25.816Z,75
2016-11-13T13:52:25.826Z,75
2016-11-13T13:53:25.848Z,70
2016-11-13T13:54:25.889Z,70
2016-11-13T13:55:25.886Z,70
2016-11-13T13:56:40.811Z,70
2016-11-13T13:57:25.912Z,70
2016-11-13T13:58:25.921Z,70
2016-11-13T13:59:25.945Z,70
2016-11-13T14:00:26.266Z,70
2016-11-13T14:01:25.974Z,65
2016-11-13T14:02:40.902Z,65
2016-11-13T14:03:26.012Z,65
2016-11-13T14:05:26.047Z,60
2016-11-13T14:06:26.064Z,60
2016-11-13T14:07:26.078Z,60
2016-11-13T14:08:41.011Z,55
2016-11-13T14:09:41.031Z,55
2016-11-13T14:10:26.175Z,55
2016-11-13T14:11:41.062Z,50
2016-11-13T14:12:55.994Z,50
2016-11-13T14:13:26.180Z,45
2016-11-13T14:14:41.112Z,40
2016-11-13T14:15:26.526Z,45
2016-11-13T14:16:26.226Z,40
2016-11-13T14:17:26.250Z,40
2016-11-13T14:18:26.268Z,40
2016-11-13T14:20:26.296Z,40
2016-11-13T14:21:26.313Z,35
2016-11-13T14:22:26.335Z,35
2016-11-13T14:23:26.350Z,35
2016-11-13T14:25:26.388Z,35
2016-11-13T14:26:26.406Z,35
2016-11-13T14:27:41.331Z,35
2016-11-13T14:28:41.346Z,35
2016-11-13T14:29:26.452Z,30
2016-11-13T14:30:41.376Z,30
2016-11-13T14:31:26.485Z,30
2016-11-13T14:32:26.498Z,30
2016-11-13T14:33:26.516Z,30
2016-11-13T14:34:26.530Z,30
2016-11-13T14:35:26.553Z,25
2016-11-13T14:36:26.579Z,25
2016-11-13T14:37:26.582Z,25
2016-11-13T14:38:26.606Z,25
2016-11-13T14:39:26.617Z,25
2016-11-13T14:41:26.658Z,20
2016-11-13T14:42:26.672Z,20
2016-11-13T14:44:26.701Z,20
2016-11-13T14:45:26.743Z,20
2016-11-13T14:46:26.745Z,20
2016-11-13T14:47:26.754Z,20
2016-11-13T14:48:26.801Z,15
2016-11-13T14:49:41.696Z,15
2016-11-13T14:50:26.795Z,15
2016-11-13T14:51:41.731Z,15
2016-11-13T14:52:26.865Z,15
2016-11-13T14:53:41.768Z,15
2016-11-13T14:54:26.861Z,15
2016-11-13T14:55:27.196Z,15
2016-11-13T14:56:26.908Z,10
2016-11-13T14:57:26.919Z,10
2016-11-13T14:58:41.845Z,10
2016-11-13T14:59:41.862Z,10
2016-11-13T15:00:26.959Z,10
2016-11-13T15:01:26.983Z,10
2016-11-13T15:02:26.998Z,10
2016-11-13T15:03:27.011Z,10
2016-11-13T15:04:41.937Z,10
2016-11-13T15:05:41.968Z,5
2016-11-13T15:06:27.065Z,5
2016-11-13T15:07:27.080Z,5
2016-11-13T15:08:42.006Z,5
2016-11-13T15:09:27.110Z,5
2016-11-13T15:11:27.136Z,5